EGCC/MAN METAR and TAF weather

Enter ICAO airport designator
Station Type Date Time Source
EGCC METAR 2018/12/10 20:50 UTC NOAA

EGCC 102050Z AUTO 16003KT 9999 NCD 06/05 Q1026 NOSIG


Station Type Date Time Source
EGCC Decoded METAR 2018/12/10 20:50 UTC NOAA

Manchester Airport, United Kingdom (EGCC) 53-21N 002-17W 0M
Dec 10, 2018 - 03:50 PM EST / 2018.12.10 2050 UTC
Wind: from the SSE (160 degrees) at 3 MPH (3 KT):0
Visibility: greater than 7 mile(s):0
Temperature: 42 F (6 C)
Dew Point: 41 F (5 C)
Relative Humidity: 93%
Pressure (altimeter): 30.30 in. Hg (1026 hPa)
ob: EGCC 102050Z AUTO 16003KT 9999 NCD 06/05 Q1026 NOSIG
cycle: 21

Station Type Date Time Source
EGCC TAF 2018/12/10 18:09 UTC NOAA

TAF EGCC 101655Z 1018/1124 22004KT 9999 SCT020
TEMPO 1018/1102 8000 PROB30
TEMPO 1021/1102 4000 BR
BECMG 1102/1105 14010KT
TEMPO 1102/1115 BKN010 PROB30
TEMPO 1102/1112 7000 -RADZ BKN005 PROB30
TEMPO 1112/1124 9000
TEMPO 1121/1124 BKN010


Example: see airport list